createdAt,value
2022-12-24T00:01:06.068Z,99338.78
2022-12-24T00:03:34.135Z,99339.66
2022-12-24T00:06:08.580Z,99344.78
2022-12-24T00:08:36.192Z,99341.38
2022-12-24T00:11:03.292Z,99339.66
2022-12-24T00:13:30.371Z,99345.66
2022-12-24T00:15:57.414Z,99347.34
2022-12-24T00:18:24.572Z,99342.22
2022-12-24T00:20:51.858Z,99345.63
2022-12-24T00:23:19.969Z,99351.59
2022-12-24T00:25:47.462Z,99341.38
2022-12-24T00:28:15.707Z,99343.91
2022-12-24T00:30:44.015Z,99345.63
2022-12-24T00:33:11.747Z,99347.34
2022-12-24T00:35:40.899Z,99345.66
2022-12-24T00:38:09.018Z,99351.63
2022-12-24T00:40:36.305Z,99350.75
2022-12-24T00:43:03.601Z,99353.31
2022-12-24T00:45:30.731Z,99355.88
2022-12-24T00:47:57.746Z,99356.75
2022-12-24T00:50:24.981Z,99360.13
2022-12-24T00:52:52.091Z,99360.13
2022-12-24T00:55:20.134Z,99355.00
2022-12-24T00:57:47.261Z,99351.63
2022-12-24T01:00:16.265Z,99355.00
2022-12-24T01:02:43.756Z,99356.72
2022-12-24T01:05:11.789Z,99361.88
2022-12-24T01:07:44.647Z,99358.44
2022-12-24T01:10:14.332Z,99362.72
2022-12-24T01:12:41.985Z,99353.31
2022-12-24T01:15:10.037Z,99355.88
2022-12-24T01:17:37.208Z,99361.00
2022-12-24T01:20:09.869Z,99361.00
2022-12-24T01:22:37.011Z,99354.16
2022-12-24T01:25:04.521Z,99355.03
2022-12-24T01:27:33.177Z,99368.69
2022-12-24T01:30:00.289Z,99360.16
2022-12-24T01:32:27.318Z,99355.03
2022-12-24T01:34:54.332Z,99357.56
2022-12-24T01:37:21.425Z,99364.41
2022-12-24T01:39:48.685Z,99363.53
2022-12-24T01:42:39.310Z,99358.44
2022-12-24T01:45:31.316Z,99359.28
2022-12-24T01:47:58.563Z,99366.97
2022-12-24T01:50:26.051Z,99360.16
2022-12-24T01:52:53.656Z,99365.28
2022-12-24T01:55:21.200Z,99366.09
2022-12-24T01:57:55.568Z,99363.53
2022-12-24T02:00:22.996Z,99363.53
2022-12-24T02:02:52.884Z,99358.44
2022-12-24T02:05:30.067Z,99370.41
2022-12-24T02:07:58.586Z,99366.97
2022-12-24T02:10:25.595Z,99363.56
2022-12-24T02:12:52.995Z,99365.25
2022-12-24T02:15:21.947Z,99364.41
2022-12-24T02:18:04.998Z,99361.81
2022-12-24T02:20:54.606Z,99368.66
2022-12-24T02:23:33.542Z,99361.81
2022-12-24T02:26:29.945Z,99372.06
2022-12-24T02:29:15.125Z,99366.94
2022-12-24T02:31:50.794Z,99375.47
2022-12-24T02:34:46.819Z,99373.75
2022-12-24T02:37:57.898Z,99373.75
2022-12-24T02:40:34.166Z,99367.78
2022-12-24T02:43:06.038Z,99366.94
2022-12-24T02:45:35.649Z,99369.50
2022-12-24T02:48:02.872Z,99378.03
2022-12-24T02:50:29.941Z,99383.16
2022-12-24T02:52:58.316Z,99380.56
2022-12-24T02:55:48.632Z,99379.75
2022-12-24T02:58:15.567Z,99384.00
2022-12-24T03:01:18.004Z,99380.56
2022-12-24T03:04:07.553Z,99385.69
2022-12-24T03:06:52.308Z,99378.88
2022-12-24T03:09:34.038Z,99382.25
2022-12-24T03:12:23.588Z,99383.97
2022-12-24T03:14:51.611Z,99378.88
2022-12-24T03:17:20.065Z,99382.25
2022-12-24T03:19:47.914Z,99387.38
2022-12-24T03:22:17.411Z,99384.81
2022-12-24T03:24:44.618Z,99386.50
2022-12-24T03:27:13.475Z,99383.94
2022-12-24T03:29:41.675Z,99392.47
2022-12-24T03:32:09.174Z,99392.47
2022-12-24T03:34:36.369Z,99383.09
2022-12-24T03:37:04.063Z,99385.63
2022-12-24T03:39:31.150Z,99382.22
2022-12-24T03:41:58.184Z,99378.81
2022-12-24T03:44:25.223Z,99392.47
2022-12-24T03:46:52.336Z,99390.75
2022-12-24T03:49:19.476Z,99395.03
2022-12-24T03:51:46.502Z,99399.28
2022-12-24T03:54:13.551Z,99412.03
2022-12-24T03:56:40.565Z,99398.38
2022-12-24T03:59:07.705Z,99402.63
2022-12-24T04:01:34.891Z,99402.63
2022-12-24T04:04:02.115Z,99413.75
2022-12-24T04:06:29.252Z,99412.88
2022-12-24T04:08:56.242Z,99407.75
2022-12-24T04:11:23.350Z,99387.25
2022-12-24T04:13:50.414Z,99414.56
2022-12-24T04:16:17.823Z,99420.56
2022-12-24T04:18:45.188Z,99419.69
2022-12-24T04:21:12.377Z,99424.78
2022-12-24T04:23:40.894Z,99416.28
2022-12-24T04:26:10.065Z,99421.41
2022-12-24T04:28:38.635Z,99423.06
2022-12-24T04:31:16.018Z,99418.81
2022-12-24T04:33:43.955Z,99417.94
2022-12-24T04:36:14.863Z,99414.53
2022-12-24T04:38:41.943Z,99382.06
2022-12-24T04:41:17.414Z,99422.19
2022-12-24T04:43:50.154Z,99425.63
2022-12-24T04:46:23.607Z,99427.31
2022-12-24T04:48:52.932Z,99430.75
2022-12-24T04:51:20.987Z,99433.28
2022-12-24T04:53:48.148Z,99428.13
2022-12-24T04:56:21.843Z,99429.84
2022-12-24T04:58:49.478Z,99436.66
2022-12-24T05:01:20.300Z,99436.66
2022-12-24T05:03:48.049Z,99438.41
2022-12-24T05:06:18.250Z,99438.34
2022-12-24T05:08:45.281Z,99447.72
2022-12-24T05:11:15.858Z,99448.56
2022-12-24T05:13:47.226Z,99448.56
2022-12-24T05:16:17.164Z,99448.56
2022-12-24T05:18:44.450Z,99446.00
2022-12-24T05:21:14.727Z,99441.75
2022-12-24T05:23:59.918Z,99452.00
2022-12-24T05:26:34.758Z,99448.59
2022-12-24T05:29:03.490Z,99447.75
2022-12-24T05:31:31.899Z,99452.00
2022-12-24T05:33:59.132Z,99445.19
2022-12-24T05:36:26.516Z,99445.16
2022-12-24T05:38:53.898Z,99452.00
2022-12-24T05:41:21.293Z,99452.00
2022-12-24T05:43:48.373Z,99452.00
2022-12-24T05:46:18.960Z,99456.28
2022-12-24T05:48:47.599Z,99469.09
2022-12-24T05:51:18.974Z,99479.31
2022-12-24T05:53:47.202Z,99471.66
2022-12-24T05:56:17.896Z,99476.75
2022-12-24T05:58:45.407Z,99484.44
2022-12-24T06:01:13.306Z,99475.88
2022-12-24T06:03:41.267Z,99484.44
2022-12-24T06:06:12.148Z,99477.56
2022-12-24T06:08:40.398Z,99484.44
2022-12-24T06:11:11.167Z,99491.22
2022-12-24T06:13:38.707Z,99490.38
2022-12-24T06:16:07.741Z,99489.53
2022-12-24T06:18:36.238Z,99493.75
2022-12-24T06:21:05.378Z,99503.16
2022-12-24T06:23:34.935Z,99500.53
2022-12-24T06:26:03.465Z,99506.50
2022-12-24T06:28:32.121Z,99520.16
2022-12-24T06:31:03.432Z,99518.44
2022-12-24T06:33:32.046Z,99516.75
2022-12-24T06:35:59.381Z,99520.16
2022-12-24T06:38:27.093Z,99521.03
2022-12-24T06:40:56.052Z,99520.16
2022-12-24T06:43:23.354Z,99527.88
2022-12-24T06:45:50.491Z,99533.81
2022-12-24T06:48:18.060Z,99537.25
2022-12-24T06:50:45.085Z,99549.19
2022-12-24T06:53:12.364Z,99554.28
2022-12-24T06:55:39.677Z,99550.88
2022-12-24T06:58:06.873Z,99563.63
2022-12-24T07:00:34.249Z,99557.69
2022-12-24T07:03:01.297Z,99562.78
2022-12-24T07:05:29.420Z,99566.19
2022-12-24T07:07:57.050Z,99570.44
2022-12-24T07:10:24.287Z,99578.09
2022-12-24T07:12:51.437Z,99576.38
2022-12-24T07:15:18.599Z,99583.19
2022-12-24T07:17:45.692Z,99587.50
2022-12-24T07:20:15.265Z,99595.13
2022-12-24T07:22:43.051Z,99600.19
2022-12-24T07:25:11.795Z,99601.88
2022-12-24T07:27:39.465Z,99596.72
2022-12-24T07:30:07.233Z,99605.28
2022-12-24T07:32:34.532Z,99612.13
2022-12-24T07:35:01.624Z,99611.25
2022-12-24T07:37:28.884Z,99614.66
2022-12-24T07:39:56.216Z,99618.88
2022-12-24T07:42:23.582Z,99629.97
2022-12-24T07:44:51.199Z,99635.94
2022-12-24T07:47:18.336Z,99640.16
2022-12-24T07:49:45.456Z,99645.25
2022-12-24T07:52:12.517Z,99651.25
2022-12-24T07:54:39.693Z,99655.50
2022-12-24T07:57:06.830Z,99656.34
2022-12-24T07:59:34.449Z,99666.56
2022-12-24T08:02:01.753Z,99658.88
2022-12-24T08:04:32.797Z,99664.81
2022-12-24T08:06:59.879Z,99671.66
2022-12-24T08:09:26.975Z,99670.00
2022-12-24T08:11:54.061Z,99675.94
2022-12-24T08:14:21.179Z,99683.59
2022-12-24T08:16:48.258Z,99680.22
2022-12-24T08:19:16.883Z,99653.56
2022-12-24T08:21:44.090Z,99675.03
2022-12-24T08:24:11.189Z,99683.56
2022-12-24T08:26:38.293Z,99687.78
2022-12-24T08:29:06.495Z,99690.38
2022-12-24T08:31:37.191Z,99694.63
2022-12-24T08:34:05.736Z,99704.00
2022-12-24T08:36:33.656Z,99700.56
2022-12-24T08:39:03.810Z,99701.44
2022-12-24T08:41:31.358Z,99704.84
2022-12-24T08:43:58.559Z,99691.16
2022-12-24T08:46:25.982Z,99702.28
2022-12-24T08:48:53.172Z,99710.78
2022-12-24T08:51:20.413Z,99712.53
2022-12-24T08:53:47.549Z,99716.81
2022-12-24T08:56:14.668Z,99726.16
2022-12-24T08:58:41.797Z,99723.66
2022-12-24T09:01:14.414Z,99721.94
2022-12-24T09:03:42.362Z,99731.28
2022-12-24T09:06:09.791Z,99736.38
2022-12-24T09:08:37.057Z,99732.97
2022-12-24T09:11:13.456Z,99736.38
2022-12-24T09:13:41.291Z,99738.13
2022-12-24T09:16:09.113Z,99732.97
2022-12-24T09:18:36.774Z,99741.56
2022-12-24T09:21:06.832Z,99740.66
2022-12-24T09:23:36.365Z,99740.66
2022-12-24T09:26:32.271Z,99760.31
2022-12-24T09:29:01.016Z,99740.66
2022-12-24T09:31:28.987Z,99755.22
2022-12-24T09:33:56.275Z,99756.13
2022-12-24T09:36:23.360Z,99762.13
2022-12-24T09:38:50.767Z,99769.81
2022-12-24T09:41:45.591Z,99767.25
2022-12-24T09:44:20.766Z,99763.84
2022-12-24T09:46:49.580Z,99765.63
2022-12-24T09:49:25.361Z,99761.41
2022-12-24T09:52:05.845Z,99772.50
2022-12-24T09:54:37.841Z,99760.50
2022-12-24T09:57:19.305Z,99771.56
2022-12-24T09:59:47.526Z,99778.41
2022-12-24T10:02:18.019Z,99779.28
2022-12-24T10:04:47.510Z,99783.53
2022-12-24T10:07:33.063Z,99788.66
2022-12-24T10:10:11.881Z,99789.47
2022-12-24T10:13:04.879Z,99790.31
2022-12-24T10:15:40.207Z,99791.22
2022-12-24T10:18:13.948Z,99801.47
2022-12-24T10:21:05.966Z,99804.91
2022-12-24T10:23:44.355Z,99810.03
2022-12-24T10:26:25.981Z,99814.31
2022-12-24T10:29:02.714Z,99818.56
2022-12-24T10:31:40.428Z,99811.66
2022-12-24T10:34:22.685Z,99821.91
2022-12-24T10:36:50.065Z,99820.22
2022-12-24T10:39:20.612Z,99828.78
2022-12-24T10:41:54.066Z,99832.97
2022-12-24T10:44:27.928Z,99844.97
2022-12-24T10:46:55.162Z,99845.84
2022-12-24T10:49:52.603Z,99845.84
2022-12-24T10:52:27.956Z,99825.38
2022-12-24T10:55:19.823Z,99845.91
2022-12-24T10:58:02.720Z,99843.34
2022-12-24T11:00:35.830Z,99844.28
2022-12-24T11:03:34.301Z,99861.31
2022-12-24T11:06:06.288Z,99868.97
2022-12-24T11:08:34.559Z,99874.94
2022-12-24T11:11:12.434Z,99869.81
2022-12-24T11:14:02.262Z,99876.69
2022-12-24T11:16:33.477Z,99882.66
2022-12-24T11:19:04.432Z,99879.16
2022-12-24T11:21:35.975Z,99883.44
2022-12-24T11:24:24.660Z,99883.41
2022-12-24T11:26:51.739Z,99880.78
2022-12-24T11:29:28.036Z,99891.84
2022-12-24T11:32:24.564Z,99892.75
2022-12-24T11:34:51.598Z,99888.50
2022-12-24T11:37:25.447Z,99897.97
2022-12-24T11:39:55.937Z,99900.56
2022-12-24T11:42:26.049Z,99900.59
2022-12-24T11:44:57.186Z,99905.66
2022-12-24T11:47:39.069Z,99908.31
2022-12-24T11:50:27.584Z,99910.03
2022-12-24T11:53:03.420Z,99910.00
2022-12-24T11:55:36.368Z,99921.13
2022-12-24T11:58:30.545Z,99917.72
2022-12-24T12:01:31.007Z,99917.81
2022-12-24T12:04:00.095Z,99919.56
2022-12-24T12:06:37.856Z,99919.59
2022-12-24T12:09:14.579Z,99918.78
2022-12-24T12:11:44.572Z,99921.31
2022-12-24T12:14:21.300Z,99928.06
2022-12-24T12:17:14.827Z,99922.91
2022-12-24T12:19:51.604Z,99924.66
2022-12-24T12:22:30.747Z,99924.69
2022-12-24T12:25:00.303Z,99931.50
2022-12-24T12:27:43.768Z,99944.41
2022-12-24T12:30:20.580Z,99951.22
2022-12-24T12:33:18.614Z,99952.00
2022-12-24T12:35:47.179Z,99946.06
2022-12-24T12:38:26.221Z,99955.50
2022-12-24T12:41:13.746Z,99947.03
2022-12-24T12:43:52.880Z,99942.75
2022-12-24T12:46:55.785Z,99941.91
2022-12-24T12:49:37.775Z,99947.00
2022-12-24T12:52:18.768Z,99948.66
2022-12-24T12:55:00.813Z,99955.47
2022-12-24T12:57:32.060Z,99961.41
2022-12-24T13:00:12.080Z,99948.53
2022-12-24T13:02:42.367Z,99957.06
2022-12-24T13:05:18.445Z,99974.06
2022-12-24T13:08:00.506Z,99974.03
2022-12-24T13:10:50.892Z,99970.53
2022-12-24T13:13:20.604Z,99980.81
2022-12-24T13:16:06.717Z,99978.28
2022-12-24T13:18:55.452Z,99985.94
2022-12-24T13:21:26.390Z,99996.13
2022-12-24T13:24:16.572Z,100000.47
2022-12-24T13:26:44.078Z,100002.19
2022-12-24T13:29:34.467Z,99996.25
2022-12-24T13:32:20.353Z,99997.97
2022-12-24T13:34:50.522Z,100003.09
2022-12-24T13:37:24.807Z,100009.03
2022-12-24T13:40:07.293Z,100003.09
2022-12-24T13:42:59.381Z,100014.19
2022-12-24T13:45:30.802Z,100018.41
2022-12-24T13:48:06.831Z,100025.22
2022-12-24T13:50:37.036Z,100026.09
2022-12-24T13:53:06.101Z,100024.31
2022-12-24T13:55:34.943Z,100025.16
2022-12-24T13:58:05.115Z,100032.00
2022-12-24T14:00:53.814Z,100037.09
2022-12-24T14:03:32.318Z,100029.34
2022-12-24T14:06:05.908Z,100039.63
2022-12-24T14:08:39.126Z,100050.66
2022-12-24T14:11:20.308Z,100046.41
2022-12-24T14:13:47.477Z,100050.66
2022-12-24T14:16:28.349Z,100055.72
2022-12-24T14:19:15.419Z,100060.00
2022-12-24T14:22:01.555Z,100061.72
2022-12-24T14:24:35.759Z,100060.78
2022-12-24T14:27:25.000Z,100072.75
2022-12-24T14:30:40.482Z,100077.81
2022-12-24T14:33:31.275Z,100080.34
2022-12-24T14:35:58.994Z,100093.13
2022-12-24T14:38:26.699Z,100088.00
2022-12-24T14:41:27.908Z,100089.69
2022-12-24T14:44:45.564Z,100090.50
2022-12-24T14:47:34.201Z,100097.22
2022-12-24T14:50:25.602Z,100104.84
2022-12-24T14:53:19.200Z,100109.97
2022-12-24T14:55:49.130Z,100116.78
2022-12-24T14:58:19.283Z,100118.50
2022-12-24T15:00:46.609Z,100123.56
2022-12-24T15:03:16.376Z,100124.38
2022-12-24T15:05:44.457Z,100118.22
2022-12-24T15:08:18.192Z,100138.75
2022-12-24T15:10:50.695Z,100150.69
2022-12-24T15:13:37.937Z,100146.44
2022-12-24T15:16:09.101Z,100138.72
2022-12-24T15:18:42.058Z,100152.41
2022-12-24T15:21:18.616Z,100153.25
2022-12-24T15:23:51.240Z,100144.66
2022-12-24T15:26:29.116Z,100152.31
2022-12-24T15:29:03.343Z,100150.59
2022-12-24T15:31:32.070Z,100153.91
2022-12-24T15:34:00.518Z,100155.56
2022-12-24T15:36:37.259Z,100157.25
2022-12-24T15:39:08.606Z,100157.25
2022-12-24T15:42:01.787Z,100165.75
2022-12-24T15:44:40.864Z,100165.75
2022-12-24T15:47:15.529Z,100169.16
2022-12-24T15:49:48.119Z,100164.78
2022-12-24T15:52:19.936Z,100173.34
2022-12-24T15:54:55.455Z,100171.66
2022-12-24T15:57:33.683Z,100168.16
2022-12-24T16:00:03.663Z,100159.47
2022-12-24T16:02:35.039Z,100174.06
2022-12-24T16:05:33.286Z,100176.59
2022-12-24T16:08:08.569Z,100175.75
2022-12-24T16:10:40.008Z,100184.19
2022-12-24T16:13:32.339Z,100184.13
2022-12-24T16:16:05.633Z,100175.50
2022-12-24T16:18:37.867Z,100190.81
2022-12-24T16:21:06.970Z,100192.47
2022-12-24T16:23:39.768Z,100189.06
2022-12-24T16:26:06.845Z,100194.16
2022-12-24T16:28:34.065Z,100183.88
2022-12-24T16:31:01.523Z,100190.78
2022-12-24T16:33:29.260Z,100192.44
2022-12-24T16:35:57.189Z,100197.47
2022-12-24T16:38:25.308Z,100200.94
2022-12-24T16:40:52.525Z,100200.88
2022-12-24T16:43:38.027Z,100188.81
2022-12-24T16:46:07.491Z,100192.25
2022-12-24T16:48:37.915Z,100201.63
2022-12-24T16:51:05.287Z,100200.66
2022-12-24T16:53:32.380Z,100212.75
2022-12-24T16:55:59.480Z,100217.84
2022-12-24T16:58:26.588Z,100218.72
2022-12-24T17:00:53.821Z,100217.84
2022-12-24T17:03:21.033Z,100217.84
2022-12-24T17:05:48.354Z,100217.91
2022-12-24T17:08:15.496Z,100219.63
2022-12-24T17:10:50.373Z,100206.00
2022-12-24T17:13:17.497Z,100216.22
2022-12-24T17:15:44.597Z,100207.69
2022-12-24T17:18:11.786Z,100211.91
2022-12-24T17:20:38.864Z,100214.41
2022-12-24T17:23:06.016Z,100222.91
2022-12-24T17:25:33.169Z,100228.03
2022-12-24T17:28:00.298Z,100235.63
2022-12-24T17:30:27.383Z,100253.63
2022-12-24T17:32:54.450Z,100240.78
2022-12-24T17:35:21.571Z,100240.91
2022-12-24T17:37:48.754Z,100236.59
2022-12-24T17:40:15.943Z,100241.75
2022-12-24T17:42:43.790Z,100249.34
2022-12-24T17:45:11.105Z,100242.50
2022-12-24T17:47:38.252Z,100248.47
2022-12-24T17:50:06.790Z,100248.47
2022-12-24T17:52:34.925Z,100257.03
2022-12-24T17:55:02.074Z,100254.47
2022-12-24T17:57:29.185Z,100263.81
2022-12-24T17:59:57.568Z,100262.13
2022-12-24T18:02:24.767Z,100263.84
2022-12-24T18:04:52.100Z,100255.28
2022-12-24T18:07:19.139Z,100261.28
2022-12-24T18:09:46.336Z,100257.03
2022-12-24T18:12:13.689Z,100255.28
2022-12-24T18:14:40.852Z,100246.66
2022-12-24T18:17:08.029Z,100258.63
2022-12-24T18:19:35.290Z,100260.25
2022-12-24T18:22:02.358Z,100256.75
2022-12-24T18:24:29.494Z,100272.06
2022-12-24T18:26:56.917Z,100271.16
2022-12-24T18:29:24.109Z,100274.59
2022-12-24T18:31:51.292Z,100278.94
2022-12-24T18:34:18.593Z,100273.66
2022-12-24T18:36:49.738Z,100290.00
2022-12-24T18:39:21.963Z,100295.97
2022-12-24T18:41:49.806Z,100299.31
2022-12-24T18:44:22.558Z,100300.22
2022-12-24T18:46:51.934Z,100313.00
2022-12-24T18:49:19.069Z,100313.00
2022-12-24T18:51:46.193Z,100323.22
2022-12-24T18:54:13.211Z,100309.63
2022-12-24T18:56:40.299Z,100309.53
2022-12-24T18:59:07.554Z,100324.97
2022-12-24T19:01:35.884Z,100316.41
2022-12-24T19:04:03.524Z,100298.34
2022-12-24T19:06:30.661Z,100309.63
2022-12-24T19:09:00.234Z,100303.44
2022-12-24T19:11:30.390Z,100315.56
2022-12-24T19:13:58.486Z,100314.66
2022-12-24T19:16:26.597Z,100314.63
2022-12-24T19:18:53.956Z,100319.69
2022-12-24T19:21:21.144Z,100324.88
2022-12-24T19:23:48.749Z,100330.06
2022-12-24T19:26:17.258Z,100330.06
2022-12-24T19:28:44.979Z,100329.97
2022-12-24T19:31:24.890Z,100335.00
2022-12-24T19:33:54.739Z,100335.00
2022-12-24T19:36:31.042Z,100320.41
2022-12-24T19:38:59.287Z,100335.00
2022-12-24T19:41:28.827Z,100340.13
2022-12-24T19:43:58.508Z,100345.16
2022-12-24T19:46:28.219Z,100347.78
2022-12-24T19:48:57.888Z,100348.75
2022-12-24T19:51:26.880Z,100357.34
2022-12-24T19:53:55.998Z,100361.53
2022-12-24T19:56:24.782Z,100361.53
2022-12-24T19:58:52.303Z,100364.09
2022-12-24T20:01:21.991Z,100367.56
2022-12-24T20:03:50.690Z,100360.72
2022-12-24T20:06:20.007Z,100359.06
2022-12-24T20:08:47.440Z,100362.44
2022-12-24T20:11:17.192Z,100371.00
2022-12-24T20:13:45.137Z,100365.84
2022-12-24T20:16:15.309Z,100376.97
2022-12-24T20:18:42.310Z,100375.25
2022-12-24T20:21:12.519Z,100381.22
2022-12-24T20:23:40.635Z,100384.56
2022-12-24T20:26:10.958Z,100390.50
2022-12-24T20:28:38.452Z,100381.16
2022-12-24T20:31:18.230Z,100382.03
2022-12-24T20:33:46.312Z,100385.44
2022-12-24T20:36:18.873Z,100381.97
2022-12-24T20:38:47.097Z,100380.28
2022-12-24T20:41:17.117Z,100374.31
2022-12-24T20:43:48.400Z,100376.84
2022-12-24T20:46:18.100Z,100372.53
2022-12-24T20:48:45.582Z,100367.41
2022-12-24T20:51:24.996Z,100360.56
2022-12-24T20:53:58.968Z,100352.03
2022-12-24T20:56:26.557Z,100363.91
2022-12-24T20:58:54.011Z,100372.44
2022-12-24T21:01:25.010Z,100382.75
2022-12-24T21:03:54.186Z,100382.75
2022-12-24T21:06:22.313Z,100385.31
2022-12-24T21:08:50.440Z,100382.75
2022-12-24T21:11:36.097Z,100376.78
2022-12-24T21:14:03.572Z,100370.72
2022-12-24T21:16:32.384Z,100374.25
2022-12-24T21:18:59.768Z,100369.19
2022-12-24T21:21:26.834Z,100376.91
2022-12-24T21:23:54.539Z,100359.06
2022-12-24T21:26:21.799Z,100367.59
2022-12-24T21:28:49.288Z,100376.97
2022-12-24T21:31:16.960Z,100376.13
2022-12-24T21:33:44.239Z,100383.00
2022-12-24T21:36:13.116Z,100388.13
2022-12-24T21:38:40.758Z,100384.72
2022-12-24T21:41:14.175Z,100383.81
2022-12-24T21:43:42.723Z,100394.03
2022-12-24T21:46:12.256Z,100390.69
2022-12-24T21:48:58.275Z,100379.56
2022-12-24T21:51:27.188Z,100377.78
2022-12-24T21:54:13.934Z,100378.50
2022-12-24T21:57:00.104Z,100382.66
2022-12-24T21:59:27.580Z,100391.22
2022-12-24T22:01:55.940Z,100388.72
2022-12-24T22:04:23.854Z,100387.00
2022-12-24T22:07:09.971Z,100382.75
2022-12-24T22:09:59.270Z,100386.16
2022-12-24T22:12:29.383Z,100389.63
2022-12-24T22:14:56.548Z,100386.16
2022-12-24T22:17:25.744Z,100386.16
2022-12-24T22:19:54.679Z,100392.19
2022-12-24T22:22:22.043Z,100392.25
2022-12-24T22:24:49.195Z,100401.66
2022-12-24T22:27:16.377Z,100396.56
2022-12-24T22:29:43.570Z,100394.81
2022-12-24T22:32:10.666Z,100400.75
2022-12-24T22:34:37.845Z,100402.53
2022-12-24T22:37:04.987Z,100398.28
2022-12-24T22:39:32.429Z,100400.81
2022-12-24T22:41:59.575Z,100403.38
2022-12-24T22:44:26.787Z,100400.00
2022-12-24T22:46:53.861Z,100405.09
2022-12-24T22:49:21.211Z,100403.38
2022-12-24T22:51:48.396Z,100412.03
2022-12-24T22:54:16.167Z,100417.97
2022-12-24T22:56:43.456Z,100427.34
2022-12-24T22:59:14.019Z,100427.34
2022-12-24T23:01:44.474Z,100441.03
2022-12-24T23:04:13.524Z,100441.03
2022-12-24T23:06:41.837Z,100439.28
2022-12-24T23:09:12.247Z,100432.47
2022-12-24T23:11:40.788Z,100445.25
2022-12-24T23:14:32.534Z,100458.91
2022-12-24T23:16:59.783Z,100455.50
2022-12-24T23:19:26.825Z,100435.94
2022-12-24T23:21:53.918Z,100422.19
2022-12-24T23:24:20.971Z,100422.09
2022-12-24T23:26:48.115Z,100425.47
2022-12-24T23:29:15.244Z,100442.53
2022-12-24T23:31:42.396Z,100447.66
2022-12-24T23:34:09.727Z,100456.13
2022-12-24T23:36:36.933Z,100456.13
2022-12-24T23:39:04.438Z,100459.66
2022-12-24T23:41:31.464Z,100455.38
2022-12-24T23:43:58.500Z,100459.59
2022-12-24T23:46:25.662Z,100469.06
2022-12-24T23:48:56.229Z,100475.06
2022-12-24T23:51:27.667Z,100475.00
2022-12-24T23:53:57.219Z,100480.25
2022-12-24T23:56:25.608Z,100476.81
2022-12-24T23:58:52.847Z,100481.00
